createdAt,value
2023-03-06T00:00:51.364Z,8.80
2023-03-06T00:03:19.194Z,8.13
2023-03-06T00:05:47.057Z,7.95
2023-03-06T00:08:15.245Z,8.38
2023-03-06T00:10:42.999Z,9.10
2023-03-06T00:13:13.805Z,7.68
2023-03-06T00:15:43.520Z,8.25
2023-03-06T00:18:11.334Z,9.38
2023-03-06T00:20:41.398Z,11.07
2023-03-06T00:23:09.411Z,8.85
2023-03-06T00:25:38.724Z,8.52
2023-03-06T00:28:07.018Z,8.27
2023-03-06T00:30:34.920Z,8.75
2023-03-06T00:33:03.980Z,7.03
2023-03-06T00:35:31.883Z,9.25
2023-03-06T00:38:00.159Z,8.88
2023-03-06T00:40:28.318Z,6.95
2023-03-06T00:42:56.088Z,6.38
2023-03-06T00:45:23.902Z,7.30
2023-03-06T00:47:51.814Z,8.05
2023-03-06T00:50:21.296Z,7.20
2023-03-06T00:52:49.161Z,9.00
2023-03-06T00:55:17.145Z,7.07
2023-03-06T00:57:44.899Z,6.90
2023-03-06T01:00:14.923Z,7.00
2023-03-06T01:02:42.657Z,7.82
2023-03-06T01:05:10.675Z,8.68
2023-03-06T01:07:39.778Z,7.00
2023-03-06T01:10:09.478Z,9.38
2023-03-06T01:12:37.539Z,7.10
2023-03-06T01:15:06.517Z,8.38
2023-03-06T01:17:34.224Z,8.38
2023-03-06T01:20:01.984Z,8.63
2023-03-06T01:22:29.868Z,7.82
2023-03-06T01:24:58.959Z,7.85
2023-03-06T01:27:26.808Z,6.88
2023-03-06T01:29:54.601Z,7.47
2023-03-06T01:32:22.528Z,7.13
2023-03-06T01:34:50.339Z,6.53
2023-03-06T01:37:18.138Z,7.85
2023-03-06T01:39:45.888Z,8.10
2023-03-06T01:42:14.970Z,7.57
2023-03-06T01:44:58.971Z,9.05
2023-03-06T01:47:26.856Z,7.95
2023-03-06T01:49:54.786Z,8.63
2023-03-06T01:52:26.706Z,8.68
2023-03-06T01:54:59.184Z,7.72
2023-03-06T01:57:31.975Z,8.68
2023-03-06T02:00:05.621Z,6.55
2023-03-06T02:02:33.605Z,7.53
2023-03-06T02:05:03.221Z,8.55
2023-03-06T02:07:31.764Z,7.90
2023-03-06T02:09:59.932Z,7.90
2023-03-06T02:12:29.438Z,7.45
2023-03-06T02:14:58.266Z,9.85
2023-03-06T02:17:26.678Z,7.95
2023-03-06T02:20:01.106Z,8.70
2023-03-06T02:22:37.288Z,8.05
2023-03-06T02:25:10.614Z,7.97
2023-03-06T02:27:40.055Z,8.55
2023-03-06T02:30:09.822Z,8.25
2023-03-06T02:32:37.668Z,8.57
2023-03-06T02:35:07.200Z,7.35
2023-03-06T02:37:35.066Z,7.45
2023-03-06T02:40:10.318Z,8.55
2023-03-06T02:42:39.520Z,8.90
2023-03-06T02:45:11.762Z,7.57
2023-03-06T02:47:39.614Z,8.18
2023-03-06T02:50:07.800Z,8.52
2023-03-06T02:52:35.503Z,8.88
2023-03-06T02:55:03.475Z,10.75
2023-03-06T02:57:31.224Z,9.88
2023-03-06T03:00:00.696Z,10.65
2023-03-06T03:02:28.683Z,9.80
2023-03-06T03:04:56.517Z,8.73
2023-03-06T03:07:24.311Z,7.93
2023-03-06T03:09:52.029Z,8.30
2023-03-06T03:12:19.743Z,8.65
2023-03-06T03:14:47.508Z,9.82
2023-03-06T03:17:17.188Z,8.57
2023-03-06T03:19:44.987Z,8.00
2023-03-06T03:22:12.711Z,10.32
2023-03-06T03:24:42.042Z,8.70
2023-03-06T03:27:09.978Z,8.38
2023-03-06T03:29:38.019Z,8.68
2023-03-06T03:32:06.564Z,10.00
2023-03-06T03:34:35.794Z,8.30
2023-03-06T03:37:03.594Z,8.32
2023-03-06T03:39:31.352Z,11.38
2023-03-06T03:41:59.200Z,9.05
2023-03-06T03:44:27.100Z,9.35
2023-03-06T03:46:54.835Z,9.23
2023-03-06T03:49:22.619Z,8.23
2023-03-06T03:51:52.702Z,9.52
2023-03-06T03:54:20.392Z,9.27
2023-03-06T03:56:48.105Z,9.07
2023-03-06T03:59:15.889Z,8.82
2023-03-06T04:01:44.606Z,9.75
2023-03-06T04:04:13.750Z,10.77
2023-03-06T04:06:41.559Z,10.38
2023-03-06T04:09:11.055Z,8.57
2023-03-06T04:11:38.841Z,8.98
2023-03-06T04:14:08.261Z,7.90
2023-03-06T04:16:36.080Z,9.43
2023-03-06T04:19:03.914Z,9.40
2023-03-06T04:21:31.697Z,9.48
2023-03-06T04:23:59.544Z,9.20
2023-03-06T04:26:28.821Z,7.65
2023-03-06T04:28:56.558Z,9.05
2023-03-06T04:31:24.379Z,8.57
2023-03-06T04:33:52.147Z,7.78
2023-03-06T04:36:27.916Z,9.13
2023-03-06T04:38:55.765Z,8.85
2023-03-06T04:41:23.679Z,7.93
2023-03-06T04:43:53.562Z,8.15
2023-03-06T04:46:21.333Z,9.02
2023-03-06T04:48:49.180Z,9.10
2023-03-06T04:51:17.011Z,8.90
2023-03-06T04:53:44.824Z,9.48
2023-03-06T04:56:12.554Z,8.60
2023-03-06T04:58:40.285Z,7.95
2023-03-06T05:01:09.555Z,10.23
2023-03-06T05:03:37.417Z,9.10
2023-03-06T05:06:05.567Z,8.13
2023-03-06T05:08:33.327Z,8.30
2023-03-06T05:11:02.525Z,9.73
2023-03-06T05:13:30.576Z,9.00
2023-03-06T05:16:02.898Z,9.02
2023-03-06T05:18:32.101Z,7.38
2023-03-06T05:21:00.129Z,8.15
2023-03-06T05:23:28.051Z,7.30
2023-03-06T05:25:55.848Z,9.65
2023-03-06T05:28:23.655Z,8.73
2023-03-06T05:30:51.420Z,8.98
2023-03-06T05:33:19.355Z,7.95
2023-03-06T05:35:49.812Z,7.43
2023-03-06T05:38:18.721Z,7.43
2023-03-06T05:40:46.962Z,8.10
2023-03-06T05:43:14.651Z,9.15
2023-03-06T05:45:42.386Z,7.65
2023-03-06T05:48:12.975Z,7.63
2023-03-06T05:50:41.108Z,7.47
2023-03-06T05:53:10.222Z,7.47
2023-03-06T05:55:38.038Z,8.27
2023-03-06T05:58:05.778Z,7.55
2023-03-06T06:00:33.484Z,8.48
2023-03-06T06:03:02.129Z,9.27
2023-03-06T06:05:29.904Z,7.28
2023-03-06T06:07:57.686Z,7.53
2023-03-06T06:10:26.763Z,7.80
2023-03-06T06:12:54.505Z,6.63
2023-03-06T06:15:22.231Z,7.88
2023-03-06T06:17:49.916Z,8.93
2023-03-06T06:20:18.272Z,7.43
2023-03-06T06:22:46.162Z,7.15
2023-03-06T06:25:14.573Z,7.03
2023-03-06T06:27:44.184Z,8.57
2023-03-06T06:30:13.423Z,6.72
2023-03-06T06:32:41.314Z,7.32
2023-03-06T06:35:09.660Z,6.35
2023-03-06T06:37:37.443Z,7.72
2023-03-06T06:40:05.942Z,8.25
2023-03-06T06:42:39.835Z,8.98
2023-03-06T06:45:10.989Z,7.05
2023-03-06T06:47:41.288Z,6.15
2023-03-06T06:50:11.657Z,8.52
2023-03-06T06:52:39.402Z,8.13
2023-03-06T06:55:07.971Z,7.35
2023-03-06T06:57:35.818Z,6.82
2023-03-06T07:00:03.863Z,7.93
2023-03-06T07:02:33.606Z,7.53
2023-03-06T07:05:04.658Z,7.72
2023-03-06T07:07:35.589Z,7.80
2023-03-06T07:10:05.537Z,6.78
2023-03-06T07:12:34.967Z,6.95
2023-03-06T07:15:02.762Z,6.28
2023-03-06T07:17:32.137Z,7.20
2023-03-06T07:19:59.963Z,7.70
2023-03-06T07:22:30.314Z,7.63
2023-03-06T07:25:00.006Z,7.82
2023-03-06T07:27:27.872Z,6.00
2023-03-06T07:29:55.821Z,8.25
2023-03-06T07:32:23.635Z,7.07
2023-03-06T07:34:52.802Z,9.32
2023-03-06T07:37:21.274Z,8.02
2023-03-06T07:39:49.028Z,6.25
2023-03-06T07:42:17.241Z,6.30
2023-03-06T07:44:44.936Z,5.32
2023-03-06T07:47:14.276Z,6.00
2023-03-06T07:49:42.005Z,6.22
2023-03-06T07:52:12.774Z,5.60
2023-03-06T07:54:40.479Z,6.35
2023-03-06T07:57:08.181Z,5.90
2023-03-06T07:59:35.949Z,5.13
2023-03-06T08:02:03.694Z,5.18
2023-03-06T08:04:31.392Z,5.63
2023-03-06T08:07:00.162Z,5.88
2023-03-06T08:09:29.239Z,4.35
2023-03-06T08:11:57.000Z,5.95
2023-03-06T08:14:24.797Z,4.95
2023-03-06T08:16:52.848Z,5.68
2023-03-06T08:19:20.616Z,5.10
2023-03-06T08:21:48.326Z,6.75
2023-03-06T08:24:16.761Z,5.57
2023-03-06T08:26:46.847Z,6.70
2023-03-06T08:29:15.377Z,5.75
2023-03-06T08:31:44.470Z,5.72
2023-03-06T08:34:14.584Z,5.35
2023-03-06T08:36:42.359Z,5.38
2023-03-06T08:39:10.300Z,5.10
2023-03-06T08:41:38.747Z,5.68
2023-03-06T08:44:07.998Z,6.25
2023-03-06T08:46:36.507Z,6.00
2023-03-06T08:49:05.171Z,6.70
2023-03-06T08:51:33.236Z,6.00
2023-03-06T08:54:01.187Z,4.75
2023-03-06T08:56:30.199Z,6.10
2023-03-06T08:58:59.552Z,5.20
2023-03-06T09:01:30.519Z,6.00
2023-03-06T09:04:00.422Z,4.65
2023-03-06T09:06:31.180Z,5.45
2023-03-06T09:08:59.331Z,4.88
2023-03-06T09:11:28.118Z,5.78
2023-03-06T09:13:55.974Z,4.80
2023-03-06T09:16:24.938Z,5.03
2023-03-06T09:18:54.393Z,4.53
2023-03-06T09:21:22.746Z,5.13
2023-03-06T09:23:51.213Z,4.25
2023-03-06T09:26:19.211Z,4.60
2023-03-06T09:28:47.089Z,4.88
2023-03-06T09:31:17.618Z,4.97
2023-03-06T09:33:46.439Z,5.30
2023-03-06T09:36:18.460Z,5.47
2023-03-06T09:38:48.217Z,4.32
2023-03-06T09:41:26.231Z,4.30
2023-03-06T09:43:57.458Z,4.28
2023-03-06T09:46:31.085Z,5.32
2023-03-06T09:49:13.859Z,5.30
2023-03-06T09:51:53.520Z,4.80
2023-03-06T09:54:27.697Z,7.50
2023-03-06T09:56:55.476Z,4.53
2023-03-06T09:59:25.496Z,5.38
2023-03-06T10:02:01.332Z,4.68
2023-03-06T10:04:39.097Z,6.22
2023-03-06T10:07:15.778Z,4.88
2023-03-06T10:09:47.569Z,5.78
2023-03-06T10:12:24.840Z,5.55
2023-03-06T10:15:08.013Z,4.32
2023-03-06T10:17:38.392Z,5.68
2023-03-06T10:20:24.950Z,4.45
2023-03-06T10:23:11.827Z,4.78
2023-03-06T10:25:47.494Z,5.72
2023-03-06T10:28:18.236Z,5.78
2023-03-06T10:30:53.599Z,5.00
2023-03-06T10:33:38.781Z,5.43
2023-03-06T10:36:07.255Z,6.03
2023-03-06T10:38:38.189Z,5.72
2023-03-06T10:41:09.719Z,6.03
2023-03-06T10:43:39.334Z,6.22
2023-03-06T10:46:08.628Z,5.75
2023-03-06T10:48:39.404Z,5.90
2023-03-06T10:51:18.924Z,5.45
2023-03-06T10:53:55.000Z,5.38
2023-03-06T10:56:33.831Z,5.00
2023-03-06T10:59:08.224Z,5.55
2023-03-06T11:01:36.734Z,4.80
2023-03-06T11:04:18.226Z,4.53
2023-03-06T11:06:46.029Z,4.97
2023-03-06T11:09:23.181Z,5.10
2023-03-06T11:11:51.141Z,5.65
2023-03-06T11:14:20.823Z,5.47
2023-03-06T11:16:53.148Z,4.85
2023-03-06T11:19:24.600Z,5.63
2023-03-06T11:22:03.390Z,5.35
2023-03-06T11:24:39.048Z,5.32
2023-03-06T11:27:22.182Z,5.15
2023-03-06T11:29:52.356Z,6.07
2023-03-06T11:32:23.497Z,5.28
2023-03-06T11:34:56.033Z,5.55
2023-03-06T11:37:34.772Z,5.13
2023-03-06T11:40:14.088Z,5.60
2023-03-06T11:42:46.663Z,4.22
2023-03-06T11:45:27.498Z,5.17
2023-03-06T11:48:02.667Z,5.93
2023-03-06T11:50:35.849Z,5.80
2023-03-06T11:53:06.010Z,5.18
2023-03-06T11:55:45.717Z,5.35
2023-03-06T11:58:38.116Z,4.80
2023-03-06T12:01:11.688Z,5.00
2023-03-06T12:04:14.720Z,5.13
2023-03-06T12:06:53.844Z,5.47
2023-03-06T12:09:32.037Z,4.55
2023-03-06T12:15:20.096Z,4.47
2023-03-06T12:18:02.428Z,4.20
2023-03-06T12:20:44.756Z,5.40
2023-03-06T12:23:28.263Z,4.82
2023-03-06T12:26:03.036Z,5.55
2023-03-06T12:28:50.270Z,5.65
2023-03-06T12:31:44.739Z,4.63
2023-03-06T12:34:25.542Z,4.53
2023-03-06T12:37:09.636Z,5.05
2023-03-06T12:39:51.585Z,5.72
2023-03-06T12:42:43.002Z,5.07
2023-03-06T12:45:32.724Z,4.90
2023-03-06T12:48:01.682Z,6.50
2023-03-06T12:50:32.323Z,5.10
2023-03-06T12:53:03.114Z,4.82
2023-03-06T12:55:38.704Z,5.75
2023-03-06T12:58:35.010Z,4.93
2023-03-06T13:01:10.599Z,4.88
2023-03-06T13:03:59.551Z,4.38
2023-03-06T13:06:50.214Z,3.58
2023-03-06T13:09:29.164Z,3.97
2023-03-06T13:12:24.411Z,4.40
2023-03-06T13:14:58.752Z,4.57
2023-03-06T13:17:38.463Z,5.15
2023-03-06T13:20:30.770Z,5.95
2023-03-06T13:22:58.857Z,4.43
2023-03-06T13:25:48.831Z,5.30
2023-03-06T13:28:39.936Z,4.35
2023-03-06T13:31:18.208Z,4.30
2023-03-06T13:33:59.896Z,4.53
2023-03-06T13:36:30.401Z,3.72
2023-03-06T13:39:03.111Z,4.50
2023-03-06T13:41:54.179Z,5.15
2023-03-06T13:44:43.409Z,3.47
2023-03-06T13:48:10.631Z,5.38
2023-03-06T13:50:42.205Z,4.15
2023-03-06T13:53:54.678Z,5.15
2023-03-06T13:56:47.975Z,4.97
2023-03-06T13:59:38.535Z,5.13
2023-03-06T14:02:31.887Z,3.78
2023-03-06T14:05:00.876Z,4.00
2023-03-06T14:07:32.074Z,4.50
2023-03-06T14:10:04.050Z,4.07
2023-03-06T14:12:35.173Z,4.95
2023-03-06T14:15:07.087Z,3.55
2023-03-06T14:17:39.127Z,3.78
2023-03-06T14:20:15.698Z,3.80
2023-03-06T14:22:45.028Z,2.67
2023-03-06T14:25:18.320Z,3.70
2023-03-06T14:27:49.869Z,3.78
2023-03-06T14:30:22.615Z,2.70
2023-03-06T14:32:55.625Z,3.22
2023-03-06T14:35:26.947Z,2.88
2023-03-06T14:38:00.121Z,2.90
2023-03-06T14:40:32.606Z,2.90
2023-03-06T14:43:18.732Z,2.78
2023-03-06T14:45:52.285Z,2.15
2023-03-06T14:48:20.621Z,2.47
2023-03-06T14:50:50.553Z,2.63
2023-03-06T14:53:23.423Z,2.25
2023-03-06T14:55:54.332Z,2.88
2023-03-06T14:58:29.745Z,2.88
2023-03-06T15:01:01.291Z,2.33
2023-03-06T15:03:40.490Z,2.08
2023-03-06T15:06:09.811Z,2.30
2023-03-06T15:08:41.162Z,2.47
2023-03-06T15:11:09.059Z,2.85
2023-03-06T15:13:36.946Z,2.90
2023-03-06T15:16:07.701Z,3.13
2023-03-06T15:18:39.148Z,3.60
2023-03-06T15:21:09.675Z,2.80
2023-03-06T15:23:40.444Z,2.58
2023-03-06T15:26:29.570Z,2.67
2023-03-06T15:29:09.479Z,3.15
2023-03-06T15:31:39.079Z,2.72
2023-03-06T15:34:23.410Z,3.30
2023-03-06T15:36:54.590Z,3.15
2023-03-06T15:40:01.955Z,3.08
2023-03-06T15:42:29.985Z,3.28
2023-03-06T15:45:02.992Z,3.45
2023-03-06T15:47:30.702Z,4.53
2023-03-06T15:49:58.514Z,3.15
2023-03-06T15:52:26.255Z,3.50
2023-03-06T15:54:55.378Z,3.10
2023-03-06T15:57:25.944Z,3.10
2023-03-06T15:59:55.955Z,3.17
2023-03-06T16:02:24.677Z,3.35
2023-03-06T16:04:53.172Z,3.78
2023-03-06T16:07:21.599Z,3.05
2023-03-06T16:09:49.462Z,3.35
2023-03-06T16:12:20.233Z,3.65
2023-03-06T16:14:49.261Z,3.70
2023-03-06T16:17:17.184Z,3.70
2023-03-06T16:19:45.273Z,3.42
2023-03-06T16:22:13.694Z,3.95
2023-03-06T16:24:41.682Z,3.72
2023-03-06T16:27:17.947Z,4.32
2023-03-06T16:29:47.071Z,4.32
2023-03-06T16:32:14.973Z,4.10
2023-03-06T16:34:42.787Z,6.45
2023-03-06T16:37:13.841Z,5.28
2023-03-06T16:39:41.828Z,6.00
2023-03-06T16:42:09.703Z,6.80
2023-03-06T16:44:37.538Z,4.80
2023-03-06T16:47:07.015Z,5.40
2023-03-06T16:49:34.761Z,5.07
2023-03-06T16:52:04.483Z,4.25
2023-03-06T16:54:32.219Z,3.67
2023-03-06T16:56:59.932Z,4.72
2023-03-06T16:59:27.698Z,4.68
2023-03-06T17:01:55.547Z,4.70
2023-03-06T17:04:24.616Z,3.88
2023-03-06T17:06:52.879Z,3.20
2023-03-06T17:09:20.635Z,3.80
2023-03-06T17:11:48.374Z,4.22
2023-03-06T17:14:16.227Z,3.92
2023-03-06T17:16:44.243Z,4.38
2023-03-06T17:19:14.375Z,4.60
2023-03-06T17:21:44.300Z,4.05
2023-03-06T17:24:12.282Z,5.07
2023-03-06T17:26:40.128Z,3.78
2023-03-06T17:29:09.301Z,4.35
2023-03-06T17:31:37.023Z,3.25
2023-03-06T17:34:05.004Z,3.42
2023-03-06T17:36:33.548Z,4.15
2023-03-06T17:39:04.274Z,4.15
2023-03-06T17:41:32.913Z,4.35
2023-03-06T17:44:01.720Z,4.65
2023-03-06T17:46:32.064Z,4.85
2023-03-06T17:49:00.643Z,4.55
2023-03-06T17:51:28.650Z,3.97
2023-03-06T17:53:57.358Z,5.47
2023-03-06T17:56:27.242Z,4.97
2023-03-06T17:58:55.390Z,5.03
2023-03-06T18:01:27.345Z,5.25
2023-03-06T18:03:55.544Z,5.20
2023-03-06T18:06:25.089Z,4.90
2023-03-06T18:08:53.144Z,4.55
2023-03-06T18:11:21.499Z,4.47
2023-03-06T18:13:50.670Z,5.78
2023-03-06T18:16:20.605Z,4.97
2023-03-06T18:18:48.629Z,4.90
2023-03-06T18:21:17.100Z,4.43
2023-03-06T18:23:45.123Z,5.97
2023-03-06T18:26:15.223Z,4.88
2023-03-06T18:28:44.963Z,3.90
2023-03-06T18:31:18.234Z,4.40
2023-03-06T18:33:48.298Z,4.85
2023-03-06T18:36:16.708Z,4.10
2023-03-06T18:38:45.654Z,4.63
2023-03-06T18:41:15.229Z,5.32
2023-03-06T18:43:43.203Z,4.63
2023-03-06T18:46:11.729Z,4.88
2023-03-06T18:48:40.923Z,4.80
2023-03-06T18:51:10.513Z,5.47
2023-03-06T18:53:40.062Z,4.68
2023-03-06T18:56:08.681Z,4.32
2023-03-06T18:58:36.494Z,4.47
2023-03-06T19:01:07.237Z,3.80
2023-03-06T19:03:35.439Z,4.03
2023-03-06T19:06:08.072Z,3.55
2023-03-06T19:08:36.714Z,4.00
2023-03-06T19:11:08.194Z,4.28
2023-03-06T19:13:36.079Z,3.78
2023-03-06T19:16:04.152Z,4.43
2023-03-06T19:18:32.021Z,3.67
2023-03-06T19:21:10.259Z,5.00
2023-03-06T19:23:38.070Z,4.65
2023-03-06T19:26:07.409Z,4.30
2023-03-06T19:28:36.128Z,3.78
2023-03-06T19:31:09.583Z,4.28
2023-03-06T19:36:06.937Z,4.32
2023-03-06T19:38:36.449Z,4.90
2023-03-06T19:41:04.287Z,4.30
2023-03-06T19:43:32.196Z,4.05
2023-03-06T19:46:00.616Z,4.03
2023-03-06T19:48:28.507Z,5.07
2023-03-06T19:50:56.223Z,4.20
2023-03-06T19:53:23.993Z,3.95
2023-03-06T19:55:53.067Z,4.35
2023-03-06T19:58:20.759Z,4.10
2023-03-06T20:00:48.450Z,3.75
2023-03-06T20:03:16.152Z,3.47
2023-03-06T20:05:47.391Z,3.92
2023-03-06T20:08:15.179Z,4.00
2023-03-06T20:10:42.970Z,4.45
2023-03-06T20:13:12.269Z,4.82
2023-03-06T20:15:40.239Z,3.55
2023-03-06T20:18:08.287Z,4.65
2023-03-06T20:20:37.621Z,4.72
2023-03-06T20:23:05.629Z,4.10
2023-03-06T20:25:36.265Z,3.65
2023-03-06T20:28:04.264Z,3.88
2023-03-06T20:30:38.079Z,3.70
2023-03-06T20:33:06.343Z,3.67
2023-03-06T20:35:34.146Z,4.13
2023-03-06T20:38:01.899Z,4.05
2023-03-06T20:40:29.763Z,3.17
2023-03-06T20:42:57.526Z,3.30
2023-03-06T20:45:25.311Z,3.65
2023-03-06T20:47:56.200Z,3.28
2023-03-06T20:50:25.568Z,3.22
2023-03-06T20:52:54.863Z,3.13
2023-03-06T20:55:22.800Z,3.58
2023-03-06T20:57:50.815Z,3.13
2023-03-06T21:00:20.916Z,3.42
2023-03-06T21:02:48.744Z,3.28
2023-03-06T21:05:18.001Z,3.30
2023-03-06T21:07:45.691Z,3.33
2023-03-06T21:10:14.524Z,3.45
2023-03-06T21:12:42.375Z,3.65
2023-03-06T21:15:10.640Z,3.45
2023-03-06T21:17:38.821Z,3.38
2023-03-06T21:20:07.464Z,2.67
2023-03-06T21:22:36.541Z,4.03
2023-03-06T21:25:04.495Z,4.22
2023-03-06T21:27:32.276Z,4.32
2023-03-06T21:30:00.012Z,4.57
2023-03-06T21:32:27.920Z,4.72
2023-03-06T21:34:55.685Z,5.00
2023-03-06T21:37:23.504Z,4.80
2023-03-06T21:39:52.826Z,3.15
2023-03-06T21:42:20.585Z,3.03
2023-03-06T21:44:48.407Z,3.92
2023-03-06T21:47:16.108Z,3.15
2023-03-06T21:49:43.823Z,3.38
2023-03-06T21:52:11.563Z,2.60
2023-03-06T21:54:39.302Z,2.35
2023-03-06T21:57:08.478Z,3.55
2023-03-06T21:59:37.477Z,3.20
2023-03-06T22:02:05.490Z,3.17
2023-03-06T22:04:33.252Z,3.35
2023-03-06T22:07:01.120Z,3.78
2023-03-06T22:09:28.834Z,2.97
2023-03-06T22:11:57.297Z,3.72
2023-03-06T22:14:26.536Z,3.05
2023-03-06T22:16:56.680Z,3.15
2023-03-06T22:19:24.656Z,2.60
2023-03-06T22:21:52.464Z,3.20
2023-03-06T22:24:20.210Z,4.15
2023-03-06T22:26:48.383Z,4.22
2023-03-06T22:29:16.195Z,3.92
2023-03-06T22:31:45.391Z,3.25
2023-03-06T22:34:13.172Z,3.50
2023-03-06T22:36:40.945Z,3.88
2023-03-06T22:39:08.772Z,3.97
2023-03-06T22:41:36.497Z,2.78
2023-03-06T22:44:04.238Z,3.28
2023-03-06T22:46:33.369Z,3.75
2023-03-06T22:49:03.202Z,3.08
2023-03-06T22:51:31.065Z,3.05
2023-03-06T22:53:59.046Z,3.63
2023-03-06T22:56:26.891Z,3.63
2023-03-06T22:58:54.620Z,3.17
2023-03-06T23:01:25.144Z,2.95
2023-03-06T23:03:55.023Z,3.47
2023-03-06T23:06:25.890Z,2.88
2023-03-06T23:08:55.872Z,2.88
2023-03-06T23:11:24.362Z,3.88
2023-03-06T23:13:52.483Z,3.47
2023-03-06T23:16:20.264Z,3.10
2023-03-06T23:18:48.376Z,3.78
2023-03-06T23:21:18.298Z,3.65
2023-03-06T23:23:50.705Z,4.22
2023-03-06T23:26:20.601Z,2.78
2023-03-06T23:28:49.473Z,3.30
2023-03-06T23:31:19.329Z,3.47
2023-03-06T23:33:47.866Z,3.42
2023-03-06T23:36:17.731Z,2.72
2023-03-06T23:38:46.445Z,3.60
2023-03-06T23:41:18.054Z,3.38
2023-03-06T23:43:46.562Z,3.17
2023-03-06T23:46:14.990Z,2.42
2023-03-06T23:48:43.836Z,2.95
2023-03-06T23:51:15.212Z,3.30
2023-03-06T23:53:43.086Z,2.50
2023-03-06T23:56:11.686Z,2.75
2023-03-06T23:58:41.232Z,3.20
